sensor_id;sensor_type;location;lat;lon;timestamp;pressure;altitude;pressure_sealevel;temperature;humidity
62025;BME280;47978;49.118;12.146;2023-02-19T00:02:08;97832.88;;;9.44;82.81
62025;BME280;47978;49.118;12.146;2023-02-19T00:06:10;97835.38;;;9.45;82.96
62025;BME280;47978;49.118;12.146;2023-02-19T00:10:11;97820.59;;;9.31;83.45
62025;BME280;47978;49.118;12.146;2023-02-19T00:14:13;97821.88;;;9.39;83.81
62025;BME280;47978;49.118;12.146;2023-02-19T00:18:17;97819.72;;;9.36;83.70
62025;BME280;47978;49.118;12.146;2023-02-19T00:22:18;97814.19;;;9.36;84.03
62025;BME280;47978;49.118;12.146;2023-02-19T00:26:19;97814.78;;;9.33;84.19
62025;BME280;47978;49.118;12.146;2023-02-19T00:30:21;97815.94;;;9.27;84.67
62025;BME280;47978;49.118;12.146;2023-02-19T00:34:24;97812.13;;;9.22;85.84
62025;BME280;47978;49.118;12.146;2023-02-19T00:38:25;97814.63;;;9.19;85.91
62025;BME280;47978;49.118;12.146;2023-02-19T00:42:26;97815.19;;;9.16;85.91
62025;BME280;47978;49.118;12.146;2023-02-19T00:46:29;97809.63;;;9.21;85.85
62025;BME280;47978;49.118;12.146;2023-02-19T00:50:32;97809.94;;;9.19;86.11
62025;BME280;47978;49.118;12.146;2023-02-19T00:54:33;97806.66;;;9.17;86.38
62025;BME280;47978;49.118;12.146;2023-02-19T00:58:34;97807.53;;;9.08;86.60
62025;BME280;47978;49.118;12.146;2023-02-19T01:02:36;97805.31;;;9.10;87.64
62025;BME280;47978;49.118;12.146;2023-02-19T01:06:39;97806.72;;;9.07;89.46
62025;BME280;47978;49.118;12.146;2023-02-19T01:10:40;97809.03;;;8.95;90.99
62025;BME280;47978;49.118;12.146;2023-02-19T01:14:42;97804.69;;;8.89;92.11
62025;BME280;47978;49.118;12.146;2023-02-19T01:18:43;97799.47;;;8.82;92.79
62025;BME280;47978;49.118;12.146;2023-02-19T01:22:46;97796.78;;;8.77;93.60
62025;BME280;47978;49.118;12.146;2023-02-19T01:26:48;97781.03;;;8.77;94.09
62025;BME280;47978;49.118;12.146;2023-02-19T01:30:49;97773.34;;;8.74;94.30
62025;BME280;47978;49.118;12.146;2023-02-19T01:34:50;97764.25;;;8.74;94.80
62025;BME280;47978;49.118;12.146;2023-02-19T01:38:53;97761.78;;;8.72;94.91
62025;BME280;47978;49.118;12.146;2023-02-19T01:42:55;97762.94;;;8.66;95.21
62025;BME280;47978;49.118;12.146;2023-02-19T01:46:56;97754.69;;;8.61;95.64
62025;BME280;47978;49.118;12.146;2023-02-19T01:50:59;97748.41;;;8.55;95.96
62025;BME280;47978;49.118;12.146;2023-02-19T01:55:06;97748.16;;;8.52;96.35
62025;BME280;47978;49.118;12.146;2023-02-19T01:59:08;97732.16;;;8.54;96.50
62025;BME280;47978;49.118;12.146;2023-02-19T02:03:09;97726.38;;;8.50;96.53
62025;BME280;47978;49.118;12.146;2023-02-19T02:07:11;97723.38;;;8.47;96.76
62025;BME280;47978;49.118;12.146;2023-02-19T02:11:14;97706.84;;;8.47;96.67
62025;BME280;47978;49.118;12.146;2023-02-19T02:15:15;97704.94;;;8.42;96.49
62025;BME280;47978;49.118;12.146;2023-02-19T02:19:23;97699.97;;;8.44;96.35
62025;BME280;47978;49.118;12.146;2023-02-19T02:23:34;97689.53;;;8.41;96.48
62025;BME280;47978;49.118;12.146;2023-02-19T02:27:46;97680.97;;;8.43;96.87
62025;BME280;47978;49.118;12.146;2023-02-19T02:31:53;97683.75;;;8.43;96.76
62025;BME280;47978;49.118;12.146;2023-02-19T02:35:57;97686.19;;;8.44;96.84
62025;BME280;47978;49.118;12.146;2023-02-19T02:40:00;97668.03;;;8.43;96.94
62025;BME280;47978;49.118;12.146;2023-02-19T02:44:02;97657.81;;;8.44;97.07
62025;BME280;47978;49.118;12.146;2023-02-19T02:48:16;97657.84;;;8.39;96.58
62025;BME280;47978;49.118;12.146;2023-02-19T02:52:20;97663.88;;;8.46;96.91
62025;BME280;47978;49.118;12.146;2023-02-19T02:56:22;97657.28;;;8.42;97.21
62025;BME280;47978;49.118;12.146;2023-02-19T03:00:24;97652.06;;;8.35;97.26
62025;BME280;47978;49.118;12.146;2023-02-19T03:04:29;97649.59;;;8.39;97.29
62025;BME280;47978;49.118;12.146;2023-02-19T03:08:33;97643.03;;;8.29;97.78
62025;BME280;47978;49.118;12.146;2023-02-19T03:12:36;97641.91;;;8.30;97.89
62025;BME280;47978;49.118;12.146;2023-02-19T03:16:39;97643.03;;;8.29;97.58
62025;BME280;47978;49.118;12.146;2023-02-19T03:20:45;97627.84;;;8.32;97.75
62025;BME280;47978;49.118;12.146;2023-02-19T03:24:49;97630.03;;;8.35;97.30
62025;BME280;47978;49.118;12.146;2023-02-19T03:28:52;97635.81;;;8.39;97.05
62025;BME280;47978;49.118;12.146;2023-02-19T03:32:56;97633.59;;;8.41;97.19
62025;BME280;47978;49.118;12.146;2023-02-19T03:37:01;97636.34;;;8.41;97.11
62025;BME280;47978;49.118;12.146;2023-02-19T03:41:06;97641.56;;;8.42;96.95
62025;BME280;47978;49.118;12.146;2023-02-19T03:45:18;97634.66;;;8.45;96.72
62025;BME280;47978;49.118;12.146;2023-02-19T03:49:25;97629.41;;;8.48;96.80
62025;BME280;47978;49.118;12.146;2023-02-19T03:53:31;97629.44;;;8.43;96.92
62025;BME280;47978;49.118;12.146;2023-02-19T03:57:35;97630.81;;;8.46;96.97
62025;BME280;47978;49.118;12.146;2023-02-19T04:01:40;97620.09;;;8.39;96.75
62025;BME280;47978;49.118;12.146;2023-02-19T04:05:43;97610.16;;;8.43;97.06
62025;BME280;47978;49.118;12.146;2023-02-19T04:09:48;97602.97;;;8.42;97.07
62025;BME280;47978;49.118;12.146;2023-02-19T04:13:53;97607.97;;;8.40;97.25
62025;BME280;47978;49.118;12.146;2023-02-19T04:17:57;97603.56;;;8.39;96.76
62025;BME280;47978;49.118;12.146;2023-02-19T04:21:59;97602.75;;;8.39;96.74
62025;BME280;47978;49.118;12.146;2023-02-19T04:26:03;97610.16;;;8.43;96.66
62025;BME280;47978;49.118;12.146;2023-02-19T04:30:06;97605.69;;;8.47;95.88
62025;BME280;47978;49.118;12.146;2023-02-19T04:34:09;97610.97;;;8.44;96.10
62025;BME280;47978;49.118;12.146;2023-02-19T04:38:10;97615.44;;;8.40;95.96
62025;BME280;47978;49.118;12.146;2023-02-19T04:42:13;97621.97;;;8.49;95.42
62025;BME280;47978;49.118;12.146;2023-02-19T04:46:14;97635.53;;;8.40;95.35
62025;BME280;47978;49.118;12.146;2023-02-19T04:50:16;97624.53;;;8.35;95.04
62025;BME280;47978;49.118;12.146;2023-02-19T04:54:17;97628.88;;;8.46;94.94
62025;BME280;47978;49.118;12.146;2023-02-19T04:58:20;97630.00;;;8.45;95.29
62025;BME280;47978;49.118;12.146;2023-02-19T05:02:21;97618.69;;;8.37;95.17
62025;BME280;47978;49.118;12.146;2023-02-19T05:06:23;97629.44;;;8.38;94.65
62025;BME280;47978;49.118;12.146;2023-02-19T05:10:24;97632.47;;;8.42;94.38
62025;BME280;47978;49.118;12.146;2023-02-19T05:14:27;97641.59;;;8.37;94.25
62025;BME280;47978;49.118;12.146;2023-02-19T05:18:28;97636.63;;;8.39;94.48
62025;BME280;47978;49.118;12.146;2023-02-19T05:22:30;97626.19;;;8.31;94.66
62025;BME280;47978;49.118;12.146;2023-02-19T05:26:31;97642.44;;;8.32;95.05
62025;BME280;47978;49.118;12.146;2023-02-19T05:30:34;97655.94;;;8.34;94.77
62025;BME280;47978;49.118;12.146;2023-02-19T05:34:35;97658.16;;;8.32;94.67
62025;BME280;47978;49.118;12.146;2023-02-19T05:38:37;97642.44;;;8.32;94.11
62025;BME280;47978;49.118;12.146;2023-02-19T05:42:39;97642.16;;;8.34;93.68
62025;BME280;47978;49.118;12.146;2023-02-19T05:46:41;97646.25;;;8.37;93.89
62025;BME280;47978;49.118;12.146;2023-02-19T05:50:43;97648.50;;;8.34;93.96
62025;BME280;47978;49.118;12.146;2023-02-19T05:54:44;97649.84;;;8.37;93.54
62025;BME280;47978;49.118;12.146;2023-02-19T05:58:46;97643.50;;;8.37;93.85
62025;BME280;47978;49.118;12.146;2023-02-19T06:02:48;97647.41;;;8.30;93.35
62025;BME280;47978;49.118;12.146;2023-02-19T06:06:50;97659.25;;;8.31;92.93
62025;BME280;47978;49.118;12.146;2023-02-19T06:10:51;97659.25;;;8.31;92.60
62025;BME280;47978;49.118;12.146;2023-02-19T06:14:52;97661.47;;;8.34;92.11
62025;BME280;47978;49.118;12.146;2023-02-19T06:18:55;97660.59;;;8.39;92.19
62025;BME280;47978;49.118;12.146;2023-02-19T06:22:56;97672.19;;;8.36;91.95
62025;BME280;47978;49.118;12.146;2023-02-19T06:26:58;97669.41;;;8.36;92.06
62025;BME280;47978;49.118;12.146;2023-02-19T06:30:59;97695.56;;;8.38;91.73
62025;BME280;47978;49.118;12.146;2023-02-19T06:35:02;97699.19;;;8.33;90.88
62025;BME280;47978;49.118;12.146;2023-02-19T06:39:04;97704.22;;;8.26;90.54
62025;BME280;47978;49.118;12.146;2023-02-19T06:43:05;97697.06;;;8.25;89.84
62025;BME280;47978;49.118;12.146;2023-02-19T06:47:06;97705.81;;;8.32;89.81
62025;BME280;47978;49.118;12.146;2023-02-19T06:51:11;97713.28;;;8.27;89.36
62025;BME280;47978;49.118;12.146;2023-02-19T06:55:13;97722.94;;;8.24;89.55
62025;BME280;47978;49.118;12.146;2023-02-19T06:59:14;97726.00;;;8.23;89.36
62025;BME280;47978;49.118;12.146;2023-02-19T07:03:16;97727.06;;;8.27;89.44
62025;BME280;47978;49.118;12.146;2023-02-19T07:07:18;97729.50;;;8.33;88.97
62025;BME280;47978;49.118;12.146;2023-02-19T07:11:20;97731.19;;;8.29;88.93
62025;BME280;47978;49.118;12.146;2023-02-19T07:15:21;97729.00;;;8.26;88.65
62025;BME280;47978;49.118;12.146;2023-02-19T07:19:23;97740.25;;;8.30;88.55
62025;BME280;47978;49.118;12.146;2023-02-19T07:23:25;97747.94;;;8.38;88.03
62025;BME280;47978;49.118;12.146;2023-02-19T07:27:27;97740.25;;;8.35;87.59
62025;BME280;47978;49.118;12.146;2023-02-19T07:31:28;97754.03;;;8.40;88.41
62025;BME280;47978;49.118;12.146;2023-02-19T07:35:30;97757.84;;;8.44;87.09
62025;BME280;47978;49.118;12.146;2023-02-19T07:39:32;97763.34;;;8.44;87.04
62025;BME280;47978;49.118;12.146;2023-02-19T07:43:34;97768.59;;;8.46;87.12
62025;BME280;47978;49.118;12.146;2023-02-19T07:47:36;97771.03;;;8.47;87.06
62025;BME280;47978;49.118;12.146;2023-02-19T07:51:37;97773.19;;;8.55;86.78
62025;BME280;47978;49.118;12.146;2023-02-19T07:55:40;97767.13;;;8.59;86.89
62025;BME280;47978;49.118;12.146;2023-02-19T07:59:41;97768.78;;;8.60;86.44
62025;BME280;47978;49.118;12.146;2023-02-19T08:03:43;97785.56;;;8.63;85.58
62025;BME280;47978;49.118;12.146;2023-02-19T08:07:44;97783.88;;;8.62;85.88
62025;BME280;47978;49.118;12.146;2023-02-19T08:11:47;97800.72;;;8.66;85.26
62025;BME280;47978;49.118;12.146;2023-02-19T08:15:49;97802.84;;;8.74;85.31
62025;BME280;47978;49.118;12.146;2023-02-19T08:19:50;97803.69;;;8.74;84.50
62025;BME280;47978;49.118;12.146;2023-02-19T08:23:52;97803.69;;;8.74;84.96
62025;BME280;47978;49.118;12.146;2023-02-19T08:27:55;97797.00;;;8.81;84.29
62025;BME280;47978;49.118;12.146;2023-02-19T08:31:56;97796.47;;;8.78;83.81
62025;BME280;47978;49.118;12.146;2023-02-19T08:36:00;97816.34;;;8.75;83.22
62025;BME280;47978;49.118;12.146;2023-02-19T08:40:01;97821.25;;;8.84;83.59
62025;BME280;47978;49.118;12.146;2023-02-19T08:44:04;97806.94;;;8.76;83.27
62025;BME280;47978;49.118;12.146;2023-02-19T08:48:06;97809.41;;;8.83;82.76
62025;BME280;47978;49.118;12.146;2023-02-19T08:52:07;97811.34;;;8.83;83.31
62025;BME280;47978;49.118;12.146;2023-02-19T08:56:10;97817.66;;;8.88;82.44
62025;BME280;47978;49.118;12.146;2023-02-19T09:00:13;97833.41;;;8.83;82.61
62025;BME280;47978;49.118;12.146;2023-02-19T09:04:14;97826.44;;;8.90;82.20
62025;BME280;47978;49.118;12.146;2023-02-19T09:08:16;97836.56;;;9.05;81.92
62025;BME280;47978;49.118;12.146;2023-02-19T09:12:17;97838.75;;;9.03;81.62
62025;BME280;47978;49.118;12.146;2023-02-19T09:16:20;97839.31;;;9.05;81.35
62025;BME280;47978;49.118;12.146;2023-02-19T09:20:22;97843.72;;;9.01;81.30
62025;BME280;47978;49.118;12.146;2023-02-19T09:24:23;97851.72;;;9.03;81.30
62025;BME280;47978;49.118;12.146;2023-02-19T09:28:25;97847.31;;;9.01;81.02
62025;BME280;47978;49.118;12.146;2023-02-19T09:32:30;97849.25;;;9.01;81.59
62025;BME280;47978;49.118;12.146;2023-02-19T09:36:31;97858.09;;;8.98;81.97
62025;BME280;47978;49.118;12.146;2023-02-19T09:40:33;97861.66;;;9.04;81.61
62025;BME280;47978;49.118;12.146;2023-02-19T09:44:36;97864.66;;;9.07;81.54
62025;BME280;47978;49.118;12.146;2023-02-19T09:48:40;97859.09;;;9.12;80.95
62025;BME280;47978;49.118;12.146;2023-02-19T09:52:42;97877.00;;;9.15;80.87
62025;BME280;47978;49.118;12.146;2023-02-19T09:56:45;97881.59;;;9.30;80.47
62025;BME280;47978;49.118;12.146;2023-02-19T10:00:47;97879.84;;;9.39;81.59
62025;BME280;47978;49.118;12.146;2023-02-19T10:04:50;97890.03;;;9.09;82.94
62025;BME280;47978;49.118;12.146;2023-02-19T10:08:53;97896.00;;;9.21;83.78
62025;BME280;47978;49.118;12.146;2023-02-19T10:12:58;97883.00;;;9.22;82.37
62025;BME280;47978;49.118;12.146;2023-02-19T10:17:03;97895.31;;;9.40;82.48
62025;BME280;47978;49.118;12.146;2023-02-19T10:21:06;97899.72;;;9.41;81.99
62025;BME280;47978;49.118;12.146;2023-02-19T10:25:11;97896.94;;;9.41;82.01
62025;BME280;47978;49.118;12.146;2023-02-19T10:29:13;97905.84;;;9.33;80.73
62025;BME280;47978;49.118;12.146;2023-02-19T10:33:15;97901.22;;;9.28;81.27
62025;BME280;47978;49.118;12.146;2023-02-19T10:37:17;97894.81;;;9.33;81.72
62025;BME280;47978;49.118;12.146;2023-02-19T10:41:20;97901.25;;;9.23;80.21
62025;BME280;47978;49.118;12.146;2023-02-19T10:45:23;97906.72;;;9.28;81.07
62025;BME280;47978;49.118;12.146;2023-02-19T10:49:26;97902.84;;;9.29;80.62
62025;BME280;47978;49.118;12.146;2023-02-19T10:53:36;97904.75;;;9.34;80.17
62025;BME280;47978;49.118;12.146;2023-02-19T10:57:39;97909.19;;;9.30;80.40
62025;BME280;47978;49.118;12.146;2023-02-19T11:01:51;97918.56;;;9.34;80.80
62025;BME280;47978;49.118;12.146;2023-02-19T11:05:53;97918.00;;;9.32;80.07
62025;BME280;47978;49.118;12.146;2023-02-19T11:09:59;97928.47;;;9.35;79.75
62025;BME280;47978;49.118;12.146;2023-02-19T11:14:02;97924.34;;;9.32;79.97
62025;BME280;47978;49.118;12.146;2023-02-19T11:18:14;97925.16;;;9.33;79.95
62025;BME280;47978;49.118;12.146;2023-02-19T11:22:18;97919.91;;;9.36;79.95
62025;BME280;47978;49.118;12.146;2023-02-19T11:26:23;97921.81;;;9.36;80.10
62025;BME280;47978;49.118;12.146;2023-02-19T11:30:36;97924.91;;;9.29;80.25
62025;BME280;47978;49.118;12.146;2023-02-19T11:34:37;97918.00;;;9.32;79.36
62025;BME280;47978;49.118;12.146;2023-02-19T11:38:39;97909.41;;;9.33;79.72
62025;BME280;47978;49.118;12.146;2023-02-19T11:42:43;97916.28;;;9.41;79.73
62025;BME280;47978;49.118;12.146;2023-02-19T11:46:46;97920.16;;;9.40;79.57
62025;BME280;47978;49.118;12.146;2023-02-19T11:50:51;97911.88;;;9.40;80.13
62025;BME280;47978;49.118;12.146;2023-02-19T11:54:59;97921.56;;;9.37;80.08
62025;BME280;47978;49.118;12.146;2023-02-19T11:59:06;97917.16;;;9.36;80.06
62025;BME280;47978;49.118;12.146;2023-02-19T12:03:27;97929.22;;;9.45;80.31
62025;BME280;47978;49.118;12.146;2023-02-19T12:11:50;97929.66;;;9.58;78.75
62025;BME280;47978;49.118;12.146;2023-02-19T12:15:56;97939.72;;;9.78;77.97
62025;BME280;47978;49.118;12.146;2023-02-19T12:20:05;97931.94;;;9.85;77.86
62025;BME280;47978;49.118;12.146;2023-02-19T12:24:17;97933.47;;;9.96;77.32
62025;BME280;47978;49.118;12.146;2023-02-19T12:28:31;97947.59;;;9.89;79.33
62025;BME280;47978;49.118;12.146;2023-02-19T12:32:42;97943.56;;;9.82;80.29
62025;BME280;47978;49.118;12.146;2023-02-19T12:36:47;97945.44;;;9.86;80.30
62025;BME280;47978;49.118;12.146;2023-02-19T12:40:58;97958.28;;;9.67;80.78
62025;BME280;47978;49.118;12.146;2023-02-19T12:45:05;97957.59;;;9.51;82.90
62025;BME280;47978;49.118;12.146;2023-02-19T12:49:10;97954.44;;;9.34;83.79
62025;BME280;47978;49.118;12.146;2023-02-19T12:53:18;97966.31;;;9.29;83.98
62025;BME280;47978;49.118;12.146;2023-02-19T12:57:22;97974.84;;;9.33;83.38
62025;BME280;47978;49.118;12.146;2023-02-19T13:01:25;97969.34;;;9.28;84.40
62025;BME280;47978;49.118;12.146;2023-02-19T13:05:33;97970.41;;;9.37;83.37
62025;BME280;47978;49.118;12.146;2023-02-19T13:09:38;97960.66;;;9.50;83.45
62025;BME280;47978;49.118;12.146;2023-02-19T13:13:42;97965.91;;;9.46;83.05
62025;BME280;47978;49.118;12.146;2023-02-19T13:17:44;97971.41;;;9.51;84.47
62025;BME280;47978;49.118;12.146;2023-02-19T13:21:50;97972.84;;;9.78;84.02
62025;BME280;47978;49.118;12.146;2023-02-19T13:26:00;97968.47;;;10.06;82.37
62025;BME280;47978;49.118;12.146;2023-02-19T13:30:09;97965.38;;;10.42;81.99
62025;BME280;47978;49.118;12.146;2023-02-19T13:34:19;97957.75;;;10.52;78.72
62025;BME280;47978;49.118;12.146;2023-02-19T13:38:25;97965.69;;;10.35;79.80
62025;BME280;47978;49.118;12.146;2023-02-19T13:42:27;97967.91;;;10.33;80.37
62025;BME280;47978;49.118;12.146;2023-02-19T13:46:32;97954.06;;;10.38;79.57
62025;BME280;47978;49.118;12.146;2023-02-19T13:50:34;97970.63;;;10.38;78.19
62025;BME280;47978;49.118;12.146;2023-02-19T13:54:36;97962.66;;;10.37;78.63
62025;BME280;47978;49.118;12.146;2023-02-19T14:07:33;97964.94;;;10.29;76.86
62025;BME280;47978;49.118;12.146;2023-02-19T14:16:09;97965.69;;;10.06;77.15
62025;BME280;47978;49.118;12.146;2023-02-19T14:20:39;97974.34;;;9.99;77.73
62025;BME280;47978;49.118;12.146;2023-02-19T14:24:41;97962.19;;;9.95;77.90
62025;BME280;47978;49.118;12.146;2023-02-19T14:28:42;97958.53;;;10.05;77.21
62025;BME280;47978;49.118;12.146;2023-02-19T14:32:46;97968.47;;;10.06;76.41
62025;BME280;47978;49.118;12.146;2023-02-19T14:36:55;97963.91;;;10.20;76.98
62025;BME280;47978;49.118;12.146;2023-02-19T14:41:00;97974.09;;;10.25;77.09
62025;BME280;47978;49.118;12.146;2023-02-19T14:45:04;97997.13;;;10.10;79.49
62025;BME280;47978;49.118;12.146;2023-02-19T14:49:11;97995.97;;;9.87;80.89
62025;BME280;47978;49.118;12.146;2023-02-19T14:53:15;98006.03;;;9.73;81.68
62025;BME280;47978;49.118;12.146;2023-02-19T14:57:18;98019.97;;;9.52;83.17
62025;BME280;47978;49.118;12.146;2023-02-19T15:01:25;98034.19;;;9.30;84.79
62025;BME280;47978;49.118;12.146;2023-02-19T15:05:30;98047.22;;;9.19;86.36
62025;BME280;47978;49.118;12.146;2023-02-19T15:09:32;98046.38;;;9.19;87.36
62025;BME280;47978;49.118;12.146;2023-02-19T15:13:36;98041.41;;;9.26;87.54
62025;BME280;47978;49.118;12.146;2023-02-19T15:17:39;98049.31;;;9.38;88.01
62025;BME280;47978;49.118;12.146;2023-02-19T15:21:43;98055.31;;;9.50;87.32
62025;BME280;47978;49.118;12.146;2023-02-19T15:25:46;98049.81;;;9.50;85.89
62025;BME280;47978;49.118;12.146;2023-02-19T15:29:48;98049.78;;;9.55;85.97
62025;BME280;47978;49.118;12.146;2023-02-19T15:33:53;98055.53;;;9.59;85.65
62025;BME280;47978;49.118;12.146;2023-02-19T15:37:56;98044.81;;;9.57;84.87
62025;BME280;47978;49.118;12.146;2023-02-19T15:41:58;98052.53;;;9.55;85.26
62025;BME280;47978;49.118;12.146;2023-02-19T15:46:01;98051.72;;;9.55;85.55
62025;BME280;47978;49.118;12.146;2023-02-19T15:50:05;98052.41;;;9.31;84.19
62025;BME280;47978;49.118;12.146;2023-02-19T15:54:11;98051.72;;;9.05;84.10
62025;BME280;47978;49.118;12.146;2023-02-19T15:58:16;98049.00;;;8.95;84.25
62025;BME280;47978;49.118;12.146;2023-02-19T16:02:20;98060.59;;;8.87;84.67
62025;BME280;47978;49.118;12.146;2023-02-19T16:06:22;98063.13;;;8.73;84.32
62025;BME280;47978;49.118;12.146;2023-02-19T16:10:25;98065.06;;;8.62;83.81
62025;BME280;47978;49.118;12.146;2023-02-19T16:14:30;98077.22;;;8.56;84.48
62025;BME280;47978;49.118;12.146;2023-02-19T16:18:31;98086.91;;;8.48;83.26
62025;BME280;47978;49.118;12.146;2023-02-19T16:22:33;98100.69;;;8.43;83.59
62025;BME280;47978;49.118;12.146;2023-02-19T16:26:42;98108.91;;;8.28;84.68
62025;BME280;47978;49.118;12.146;2023-02-19T16:30:44;98116.06;;;8.24;84.16
62025;BME280;47978;49.118;12.146;2023-02-19T16:34:46;98111.94;;;8.16;84.75
62025;BME280;47978;49.118;12.146;2023-02-19T16:38:58;98112.75;;;8.17;84.84
62025;BME280;47978;49.118;12.146;2023-02-19T16:47:25;98121.84;;;7.92;85.18
62025;BME280;47978;49.118;12.146;2023-02-19T16:51:27;98131.50;;;7.94;84.98
62025;BME280;47978;49.118;12.146;2023-02-19T16:55:29;98125.13;;;7.83;85.10
62025;BME280;47978;49.118;12.146;2023-02-19T16:59:31;98140.53;;;7.79;85.25
62025;BME280;47978;49.118;12.146;2023-02-19T17:03:34;98140.25;;;7.71;85.11
62025;BME280;47978;49.118;12.146;2023-02-19T17:07:38;98159.78;;;7.64;86.34
62025;BME280;47978;49.118;12.146;2023-02-19T17:11:40;98166.59;;;7.51;86.89
62025;BME280;47978;49.118;12.146;2023-02-19T17:15:41;98169.03;;;7.37;87.01
62025;BME280;47978;49.118;12.146;2023-02-19T17:19:44;98176.75;;;7.40;87.09
62025;BME280;47978;49.118;12.146;2023-02-19T17:23:45;98179.69;;;7.24;87.76
62025;BME280;47978;49.118;12.146;2023-02-19T17:27:46;98185.09;;;7.08;88.27
62025;BME280;47978;49.118;12.146;2023-02-19T17:31:48;98187.28;;;7.01;88.42
62025;BME280;47978;49.118;12.146;2023-02-19T17:35:51;98198.47;;;6.89;88.89
62025;BME280;47978;49.118;12.146;2023-02-19T17:39:52;98192.91;;;6.79;89.50
62025;BME280;47978;49.118;12.146;2023-02-19T17:43:54;98200.94;;;6.91;89.58
62025;BME280;47978;49.118;12.146;2023-02-19T17:47:55;98212.06;;;7.06;89.03
62025;BME280;47978;49.118;12.146;2023-02-19T17:51:58;98218.66;;;7.10;88.79
62025;BME280;47978;49.118;12.146;2023-02-19T17:55:59;98233.84;;;7.18;88.38
62025;BME280;47978;49.118;12.146;2023-02-19T18:00:00;98241.88;;;7.25;88.20
62025;BME280;47978;49.118;12.146;2023-02-19T18:04:02;98238.00;;;7.26;88.73
62025;BME280;47978;49.118;12.146;2023-02-19T18:08:05;98248.72;;;7.22;89.23
62025;BME280;47978;49.118;12.146;2023-02-19T18:12:06;98261.88;;;7.15;89.88
62025;BME280;47978;49.118;12.146;2023-02-19T18:16:08;98257.38;;;6.98;90.91
62025;BME280;47978;49.118;12.146;2023-02-19T18:20:11;98264.22;;;6.96;91.17
62025;BME280;47978;49.118;12.146;2023-02-19T18:24:14;98269.53;;;7.08;90.91
62025;BME280;47978;49.118;12.146;2023-02-19T18:28:16;98278.31;;;7.05;90.96
62025;BME280;47978;49.118;12.146;2023-02-19T18:32:17;98278.25;;;6.99;91.73
62025;BME280;47978;49.118;12.146;2023-02-19T18:36:18;98292.72;;;7.22;89.97
62025;BME280;47978;49.118;12.146;2023-02-19T18:40:21;98289.81;;;7.39;89.16
62025;BME280;47978;49.118;12.146;2023-02-19T18:44:23;98294.03;;;7.52;89.10
62025;BME280;47978;49.118;12.146;2023-02-19T18:48:24;98283.84;;;7.52;88.68
62025;BME280;47978;49.118;12.146;2023-02-19T18:52:26;98288.00;;;7.55;88.53
62025;BME280;47978;49.118;12.146;2023-02-19T18:56:29;98305.38;;;7.65;87.90
62025;BME280;47978;49.118;12.146;2023-02-19T19:00:30;98293.00;;;7.63;88.06
62025;BME280;47978;49.118;12.146;2023-02-19T19:04:32;98298.53;;;7.73;87.85
62025;BME280;47978;49.118;12.146;2023-02-19T19:08:33;98300.75;;;7.76;87.72
62025;BME280;47978;49.118;12.146;2023-02-19T19:12:36;98301.84;;;7.75;88.09
62025;BME280;47978;49.118;12.146;2023-02-19T19:16:37;98303.50;;;7.76;87.88
62025;BME280;47978;49.118;12.146;2023-02-19T19:20:38;98299.66;;;7.72;88.13
62025;BME280;47978;49.118;12.146;2023-02-19T19:24:41;98296.31;;;7.70;88.15
62025;BME280;47978;49.118;12.146;2023-02-19T19:28:43;98299.59;;;7.67;88.47
62025;BME280;47978;49.118;12.146;2023-02-19T19:32:46;98300.19;;;7.69;88.37
62025;BME280;47978;49.118;12.146;2023-02-19T19:36:48;98301.78;;;7.60;88.86
62025;BME280;47978;49.118;12.146;2023-02-19T19:40:49;98310.88;;;7.65;88.95
62025;BME280;47978;49.118;12.146;2023-02-19T19:44:52;98315.59;;;7.70;88.82
62025;BME280;47978;49.118;12.146;2023-02-19T19:48:53;98300.72;;;7.71;88.60
62025;BME280;47978;49.118;12.146;2023-02-19T19:52:54;98307.59;;;7.63;88.42
62025;BME280;47978;49.118;12.146;2023-02-19T19:56:56;98300.84;;;7.44;90.03
62025;BME280;47978;49.118;12.146;2023-02-19T20:00:59;98320.44;;;7.53;90.48
62025;BME280;47978;49.118;12.146;2023-02-19T20:05:00;98308.53;;;7.42;90.59
62025;BME280;47978;49.118;12.146;2023-02-19T20:09:01;98307.16;;;7.39;89.52
62025;BME280;47978;49.118;12.146;2023-02-19T20:13:03;98322.88;;;7.44;89.60
62025;BME280;47978;49.118;12.146;2023-02-19T20:17:06;98323.19;;;7.53;88.91
62025;BME280;47978;49.118;12.146;2023-02-19T20:21:07;98335.84;;;7.54;89.02
62025;BME280;47978;49.118;12.146;2023-02-19T20:25:09;98335.84;;;7.54;88.83
62025;BME280;47978;49.118;12.146;2023-02-19T20:29:10;98337.28;;;7.61;88.69
62025;BME280;47978;49.118;12.146;2023-02-19T20:33:13;98337.53;;;7.55;88.19
62025;BME280;47978;49.118;12.146;2023-02-19T20:37:15;98340.63;;;7.63;87.80
62025;BME280;47978;49.118;12.146;2023-02-19T20:41:16;98353.56;;;7.68;87.42
62025;BME280;47978;49.118;12.146;2023-02-19T20:45:17;98341.47;;;7.69;87.30
62025;BME280;47978;49.118;12.146;2023-02-19T20:49:21;98341.19;;;7.71;86.99
62025;BME280;47978;49.118;12.146;2023-02-19T20:53:23;98341.75;;;7.73;87.20
62025;BME280;47978;49.118;12.146;2023-02-19T20:57:25;98341.75;;;7.73;87.21
62025;BME280;47978;49.118;12.146;2023-02-19T21:01:26;98351.16;;;7.82;86.98
62025;BME280;47978;49.118;12.146;2023-02-19T21:05:29;98348.94;;;7.79;86.87
62025;BME280;47978;49.118;12.146;2023-02-19T21:09:30;98354.75;;;7.82;87.03
62025;BME280;47978;49.118;12.146;2023-02-19T21:13:32;98354.19;;;7.80;86.95
62025;BME280;47978;49.118;12.146;2023-02-19T21:17:33;98349.50;;;7.81;86.95
62025;BME280;47978;49.118;12.146;2023-02-19T21:21:36;98358.06;;;7.84;86.74
62025;BME280;47978;49.118;12.146;2023-02-19T21:25:37;98345.97;;;7.85;86.68
62025;BME280;47978;49.118;12.146;2023-02-19T21:29:38;98344.84;;;7.81;86.18
62025;BME280;47978;49.118;12.146;2023-02-19T21:33:40;98341.50;;;7.79;85.97
62025;BME280;47978;49.118;12.146;2023-02-19T21:37:42;98337.06;;;7.73;85.81
62025;BME280;47978;49.118;12.146;2023-02-19T21:41:44;98336.50;;;7.71;86.05
62025;BME280;47978;49.118;12.146;2023-02-19T21:45:45;98342.34;;;7.75;85.22
62025;BME280;47978;49.118;12.146;2023-02-19T21:49:47;98353.31;;;7.70;85.67